PWSweather.com
Personal Weather Stations
Station Observations
IMAZOWIE6
WarszawaPL

WarszawaPL

Lat: 52.27957, Lon: 21.05489

Elevation: 100

Station Type: WS1080

http://stacjapogody.waw.pl/

High Low Average
Temperature 44.6°F7.0°C 37.9°F3.3°C 41.0°F5.0°C
Dew Point 4.9°F-15.1°C -168.5°F-111.4°C -31.4°F-35.2°C
Winds 5.4 mph 8.7 kmh Calm Calm 2.0 mph N3.2 kmh N
Wind Gusts 8.8 mph14.2 kmh -- 4.0 mph6.4 kmh
Humidity 23% 10% 19%
Pressure 30.01 in1016.3 mb 29.66 in1004.4 mb -
Precipitation 0.00 in0.0 mm - -
Hour Temp Dew Point Humidity Winds Wind Gusts Pressure Precip Precip Rate Daily Precip Total
12:03 AM 38.5°F3.6°C 1.7°F-16.8°C 21% Calm Calm -- 30.01 in1016.3 mb 0.00 in0.0 mm 0.00 in0.0 mm 0.00 in0.0 mm
12:18 AM 38.5°F3.6°C 1.7°F-16.8°C 21% Calm Calm 0.6 mph1.0 kmh 30.01 in1016.3 mb 0.00 in0.0 mm 0.00 in0.0 mm 0.00 in0.0 mm
12:33 AM 38.5°F3.6°C 1.7°F-16.8°C 21% Calm Calm -- 30.00 in1015.9 mb 0.00 in0.0 mm 0.00 in0.0 mm 0.00 in0.0 mm
12:48 AM 38.3°F3.5°C 2.6°F-16.3°C 22% Calm Calm 2.8 mph4.5 kmh 30.00 in1015.9 mb 0.00 in0.0 mm 0.00 in0.0 mm 0.00 in0.0 mm
01:03 AM 38.7°F3.7°C 2.9°F-16.2°C 22% Calm Calm 2.8 mph4.5 kmh 29.99 in1015.6 mb 0.00 in0.0 mm 0.00 in0.0 mm 0.00 in0.0 mm
01:18 AM 38.5°F3.6°C 2.7°F-16.3°C 22% Calm Calm 0.6 mph1.0 kmh 29.98 in1015.2 mb 0.00 in0.0 mm 0.00 in0.0 mm 0.00 in0.0 mm
01:33 AM 38.7°F3.7°C 2.9°F-16.2°C 22% Calm Calm 0.6 mph1.0 kmh 29.98 in1015.2 mb 0.00 in0.0 mm 0.00 in0.0 mm 0.00 in0.0 mm
01:48 AM 38.7°F3.7°C 2.9°F-16.2°C 22% Calm Calm 0.6 mph1.0 kmh 29.98 in1015.2 mb 0.00 in0.0 mm 0.00 in0.0 mm 0.00 in0.0 mm
02:03 AM 38.5°F3.6°C 3.7°F-15.7°C 23% Calm Calm 0.6 mph1.0 kmh 29.96 in1014.6 mb 0.00 in0.0 mm 0.00 in0.0 mm 0.00 in0.0 mm
02:18 AM 38.7°F3.7°C 2.9°F-16.2°C 22% Calm Calm -- 29.96 in1014.6 mb 0.00 in0.0 mm 0.00 in0.0 mm 0.00 in0.0 mm
02:33 AM 38.5°F3.6°C 3.7°F-15.7°C 23% Calm Calm 1.4 mph2.3 kmh 29.96 in1014.6 mb 0.00 in0.0 mm 0.00 in0.0 mm 0.00 in0.0 mm
02:48 AM 38.5°F3.6°C 3.7°F-15.7°C 23% Calm Calm -- 29.95 in1014.2 mb 0.00 in0.0 mm 0.00 in0.0 mm 0.00 in0.0 mm
03:03 AM 38.5°F3.6°C 3.7°F-15.7°C 23% Calm Calm 3.4 mph5.5 kmh 29.93 in1013.5 mb 0.00 in0.0 mm 0.00 in0.0 mm 0.00 in0.0 mm
03:18 AM 38.7°F3.7°C 3.8°F-15.7°C 23% Calm Calm -- 29.92 in1013.2 mb 0.00 in0.0 mm 0.00 in0.0 mm 0.00 in0.0 mm
03:33 AM 38.5°F3.6°C 3.7°F-15.7°C 23% Calm Calm 2.0 mph3.2 kmh 29.92 in1013.2 mb 0.00 in0.0 mm 0.00 in0.0 mm 0.00 in0.0 mm
03:49 AM 38.3°F3.5°C 3.5°F-15.8°C 23% Calm Calm 2.0 mph3.2 kmh 29.90 in1012.5 mb 0.00 in0.0 mm 0.00 in0.0 mm 0.00 in0.0 mm
04:05 AM 38.3°F3.5°C 3.5°F-15.8°C 23% Calm Calm -- 29.90 in1012.5 mb 0.00 in0.0 mm 0.00 in0.0 mm 0.00 in0.0 mm
04:20 AM 37.9°F3.3°C 3.2°F-16.0°C 23% Calm Calm -- 29.89 in1012.2 mb 0.00 in0.0 mm 0.00 in0.0 mm 0.00 in0.0 mm
04:35 AM 38.3°F3.5°C 3.5°F-15.8°C 23% 0.6 mph N1.0 kmh N 4.8 mph7.7 kmh 29.90 in1012.5 mb 0.00 in0.0 mm 0.00 in0.0 mm 0.00 in0.0 mm
04:46 AM 38.5°F3.6°C 3.7°F-15.7°C 23% 2.0 mph N3.2 kmh N 4.8 mph7.7 kmh 29.89 in1012.2 mb 0.00 in0.0 mm 0.00 in0.0 mm 0.00 in0.0 mm
05:02 AM 38.3°F3.5°C 3.5°F-15.8°C 23% 2.0 mph N3.2 kmh N 4.0 mph6.4 kmh 29.88 in1011.9 mb 0.00 in0.0 mm 0.00 in0.0 mm 0.00 in0.0 mm
05:18 AM 38.5°F3.6°C 3.7°F-15.7°C 23% 0.6 mph N1.0 kmh N 2.0 mph3.2 kmh 29.87 in1011.5 mb 0.00 in0.0 mm 0.00 in0.0 mm 0.00 in0.0 mm
05:34 AM 38.5°F3.6°C 2.7°F-16.3°C 22% 1.4 mph N2.3 kmh N 4.0 mph6.4 kmh 29.85 in1010.8 mb 0.00 in0.0 mm 0.00 in0.0 mm 0.00 in0.0 mm
05:50 AM 38.3°F3.5°C 2.6°F-16.3°C 22% 1.4 mph N2.3 kmh N 3.4 mph5.5 kmh 29.84 in1010.5 mb 0.00 in0.0 mm 0.00 in0.0 mm 0.00 in0.0 mm
06:01 AM 38.3°F3.5°C 2.6°F-16.3°C 22% 2.0 mph N3.2 kmh N 5.4 mph8.7 kmh 29.83 in1010.2 mb 0.00 in0.0 mm 0.00 in0.0 mm 0.00 in0.0 mm
06:17 AM 38.5°F3.6°C 2.7°F-16.3°C 22% 3.4 mph N5.5 kmh N 6.8 mph10.9 kmh 29.82 in1009.8 mb 0.00 in0.0 mm 0.00 in0.0 mm 0.00 in0.0 mm
06:33 AM 39.0°F3.9°C 3.2°F-16.0°C 22% 3.4 mph N5.5 kmh N 6.2 mph10.0 kmh 29.81 in1009.5 mb 0.00 in0.0 mm 0.00 in0.0 mm 0.00 in0.0 mm
06:49 AM 38.7°F3.7°C 1.9°F-16.7°C 21% 2.8 mph N4.5 kmh N 6.2 mph10.0 kmh 29.80 in1009.1 mb 0.00 in0.0 mm 0.00 in0.0 mm 0.00 in0.0 mm
07:05 AM 38.7°F3.7°C 0.8°F-17.3°C 20% 3.4 mph N5.5 kmh N 6.8 mph10.9 kmh 29.78 in1008.5 mb 0.00 in0.0 mm 0.00 in0.0 mm 0.00 in0.0 mm
07:21 AM 38.3°F3.5°C -0.6°F-18.1°C 19% 1.4 mph N2.3 kmh N 4.0 mph6.4 kmh 29.79 in1008.8 mb 0.00 in0.0 mm 0.00 in0.0 mm 0.00 in0.0 mm
07:31 AM 38.3°F3.5°C -0.6°F-18.1°C 19% 4.0 mph N6.4 kmh N 8.2 mph13.2 kmh 29.79 in1008.8 mb 0.00 in0.0 mm 0.00 in0.0 mm 0.00 in0.0 mm
07:47 AM 38.3°F3.5°C -0.6°F-18.1°C 19% 2.8 mph N4.5 kmh N 5.4 mph8.7 kmh 29.77 in1008.1 mb 0.00 in0.0 mm 0.00 in0.0 mm 0.00 in0.0 mm
08:03 AM 38.3°F3.5°C -1.7°F-18.7°C 18% 3.4 mph N5.5 kmh N 8.2 mph13.2 kmh 29.77 in1008.1 mb 0.00 in0.0 mm 0.00 in0.0 mm 0.00 in0.0 mm
08:19 AM 38.3°F3.5°C -1.7°F-18.7°C 18% 1.4 mph N2.3 kmh N 4.8 mph7.7 kmh 29.77 in1008.1 mb 0.00 in0.0 mm 0.00 in0.0 mm 0.00 in0.0 mm
08:35 AM 38.7°F3.7°C -1.4°F-18.6°C 18% Calm Calm 2.0 mph3.2 kmh 29.75 in1007.5 mb 0.00 in0.0 mm 0.00 in0.0 mm 0.00 in0.0 mm
08:46 AM 38.7°F3.7°C -1.4°F-18.6°C 18% 2.0 mph N3.2 kmh N 6.8 mph10.9 kmh 29.74 in1007.1 mb 0.00 in0.0 mm 0.00 in0.0 mm 0.00 in0.0 mm
09:02 AM 39.0°F3.9°C -1.1°F-18.4°C 18% 0.6 mph N1.0 kmh N 5.4 mph8.7 kmh 29.73 in1006.8 mb 0.00 in0.0 mm 0.00 in0.0 mm 0.00 in0.0 mm
09:17 AM 39.4°F4.1°C -0.8°F-18.2°C 18% 1.4 mph N2.3 kmh N 4.0 mph6.4 kmh 29.74 in1007.1 mb 0.00 in0.0 mm 0.00 in0.0 mm 0.00 in0.0 mm
09:33 AM 39.7°F4.3°C -1.7°F-18.7°C 17% 1.4 mph N2.3 kmh N 4.8 mph7.7 kmh 29.74 in1007.1 mb 0.00 in0.0 mm 0.00 in0.0 mm 0.00 in0.0 mm
09:49 AM 39.7°F4.3°C -1.7°F-18.7°C 17% 2.8 mph N4.5 kmh N 5.4 mph8.7 kmh 29.71 in1006.1 mb 0.02 in0.5 mm 0.09 in2.3 mm 0.02 in0.5 mm
10:05 AM 39.6°F4.2°C -1.8°F-18.8°C 17% 2.8 mph N4.5 kmh N 7.4 mph11.9 kmh 29.71 in1006.1 mb 0.02 in0.5 mm 0.00 in0.0 mm 0.02 in0.5 mm
10:21 AM 39.7°F4.3°C -1.7°F-18.7°C 17% 2.8 mph N4.5 kmh N 4.8 mph7.7 kmh 29.71 in1006.1 mb 0.01 in0.3 mm 0.00 in0.0 mm 0.02 in0.5 mm
10:31 AM 39.9°F4.4°C -1.6°F-18.7°C 17% 2.8 mph N4.5 kmh N 5.4 mph8.7 kmh 29.72 in1006.4 mb 0.01 in0.3 mm 0.00 in0.0 mm 0.02 in0.5 mm
10:46 AM 39.6°F4.2°C -1.8°F-18.8°C 17% 2.8 mph N4.5 kmh N 5.4 mph8.7 kmh 29.72 in1006.4 mb 0.01 in0.3 mm 0.00 in0.0 mm 0.02 in0.5 mm
11:01 AM 39.7°F4.3°C -1.7°F-18.7°C 17% 3.4 mph N5.5 kmh N 6.2 mph10.0 kmh 29.72 in1006.4 mb 0.01 in0.3 mm 0.00 in0.0 mm 0.02 in0.5 mm
11:16 AM 39.6°F4.2°C -0.6°F-18.1°C 18% 5.4 mph N8.7 kmh N 8.8 mph14.2 kmh 29.71 in1006.1 mb 0.01 in0.3 mm 0.00 in0.0 mm 0.02 in0.5 mm
11:31 AM 40.1°F4.5°C -0.2°F-17.9°C 18% 2.8 mph N4.5 kmh N 6.8 mph10.9 kmh 29.71 in1006.1 mb 0.01 in0.3 mm 0.00 in0.0 mm 0.02 in0.5 mm
11:46 AM 40.6°F4.8°C 0.2°F-17.7°C 18% 2.8 mph N4.5 kmh N 5.4 mph8.7 kmh 29.72 in1006.4 mb 0.01 in0.3 mm 0.00 in0.0 mm 0.02 in0.5 mm
12:01 PM 40.6°F4.8°C 1.4°F-17.0°C 19% 1.4 mph N2.3 kmh N 3.4 mph5.5 kmh 29.72 in1006.4 mb 0.01 in0.3 mm 0.00 in0.0 mm 0.02 in0.5 mm
12:16 PM 41.0°F5.0°C 1.7°F-16.8°C 19% 2.0 mph N3.2 kmh N 4.0 mph6.4 kmh 29.73 in1006.8 mb 0.00 in0.0 mm 0.00 in0.0 mm 0.02 in0.5 mm
12:31 PM 41.0°F5.0°C 1.7°F-16.8°C 19% 1.4 mph N2.3 kmh N 4.0 mph6.4 kmh 29.72 in1006.4 mb 0.00 in0.0 mm 0.00 in0.0 mm 0.02 in0.5 mm
12:46 PM 41.4°F5.2°C 2.0°F-16.7°C 19% 0.6 mph N1.0 kmh N 3.4 mph5.5 kmh 29.72 in1006.4 mb 0.00 in0.0 mm 0.00 in0.0 mm 0.02 in0.5 mm
01:01 PM 41.7°F5.4°C 2.3°F-16.5°C 19% Calm Calm 2.0 mph3.2 kmh 29.72 in1006.4 mb 0.00 in0.0 mm 0.00 in0.0 mm 0.02 in0.5 mm
01:16 PM 41.9°F5.5°C 3.5°F-15.8°C 20% 0.6 mph N1.0 kmh N 2.0 mph3.2 kmh 29.72 in1006.4 mb 0.00 in0.0 mm 0.00 in0.0 mm 0.02 in0.5 mm
01:31 PM 42.6°F5.9°C 4.1°F-15.5°C 20% 2.0 mph N3.2 kmh N 4.0 mph6.4 kmh 29.72 in1006.4 mb 0.00 in0.0 mm 0.00 in0.0 mm 0.02 in0.5 mm
01:46 PM 43.5°F6.4°C 4.9°F-15.1°C 20% 0.6 mph N1.0 kmh N 2.0 mph3.2 kmh 29.72 in1006.4 mb 0.00 in0.0 mm 0.00 in0.0 mm 0.02 in0.5 mm
02:01 PM 43.3°F6.3°C 3.6°F-15.8°C 19% 1.4 mph N2.3 kmh N 4.0 mph6.4 kmh 29.72 in1006.4 mb 0.00 in0.0 mm 0.00 in0.0 mm 0.02 in0.5 mm
02:16 PM 43.3°F6.3°C 3.6°F-15.8°C 19% 1.4 mph N2.3 kmh N 3.4 mph5.5 kmh 29.72 in1006.4 mb 0.00 in0.0 mm 0.00 in0.0 mm 0.02 in0.5 mm
02:31 PM 43.3°F6.3°C 2.5°F-16.4°C 18% 2.0 mph N3.2 kmh N 4.0 mph6.4 kmh 29.72 in1006.4 mb 0.00 in0.0 mm 0.00 in0.0 mm 0.02 in0.5 mm
02:46 PM 43.3°F6.3°C 1.3°F-17.1°C 17% 2.8 mph N4.5 kmh N 5.4 mph8.7 kmh 29.72 in1006.4 mb 0.00 in0.0 mm 0.00 in0.0 mm 0.02 in0.5 mm
03:01 PM 43.5°F6.4°C 1.4°F-17.0°C 17% 1.4 mph N2.3 kmh N 2.8 mph4.5 kmh 29.72 in1006.4 mb 0.00 in0.0 mm 0.00 in0.0 mm 0.02 in0.5 mm
03:16 PM 43.2°F6.2°C -1.5°F-18.6°C 15% 1.4 mph N2.3 kmh N 4.0 mph6.4 kmh 29.72 in1006.4 mb 0.00 in0.0 mm 0.00 in0.0 mm 0.02 in0.5 mm
03:31 PM 43.0°F6.1°C -3.1°F-19.5°C 14% 2.0 mph N3.2 kmh N 5.4 mph8.7 kmh 29.71 in1006.1 mb 0.00 in0.0 mm 0.00 in0.0 mm 0.02 in0.5 mm
03:46 PM 43.0°F6.1°C -3.1°F-19.5°C 14% Calm Calm 2.8 mph4.5 kmh 29.72 in1006.4 mb 0.00 in0.0 mm 0.00 in0.0 mm 0.02 in0.5 mm
04:01 PM 43.0°F6.1°C -3.1°F-19.5°C 14% Calm Calm 2.0 mph3.2 kmh 29.72 in1006.4 mb 0.00 in0.0 mm 0.00 in0.0 mm 0.02 in0.5 mm
04:16 PM 43.2°F6.2°C -3.0°F-19.4°C 14% Calm Calm 2.0 mph3.2 kmh 29.72 in1006.4 mb 0.00 in0.0 mm 0.00 in0.0 mm 0.02 in0.5 mm
04:31 PM 42.8°F6.0°C -3.2°F-19.6°C 14% Calm Calm 2.0 mph3.2 kmh 29.72 in1006.4 mb 0.00 in0.0 mm 0.00 in0.0 mm 0.02 in0.5 mm
04:46 PM 43.0°F6.1°C -3.1°F-19.5°C 14% Calm Calm 3.4 mph5.5 kmh 29.73 in1006.8 mb 0.00 in0.0 mm 0.00 in0.0 mm 0.02 in0.5 mm
05:01 PM 43.0°F6.1°C -3.1°F-19.5°C 14% Calm Calm 4.0 mph6.4 kmh 29.72 in1006.4 mb 0.00 in0.0 mm 0.00 in0.0 mm 0.02 in0.5 mm
05:16 PM 42.8°F6.0°C -4.8°F-20.4°C 13% Calm Calm 2.8 mph4.5 kmh 29.72 in1006.4 mb 0.00 in0.0 mm 0.00 in0.0 mm 0.02 in0.5 mm
05:31 PM 42.6°F5.9°C -4.9°F-20.5°C 13% 2.0 mph N3.2 kmh N 4.8 mph7.7 kmh 29.72 in1006.4 mb 0.00 in0.0 mm 0.00 in0.0 mm 0.02 in0.5 mm
05:46 PM 42.6°F5.9°C -4.9°F-20.5°C 13% 2.8 mph N4.5 kmh N 4.8 mph7.7 kmh 29.71 in1006.1 mb 0.00 in0.0 mm 0.00 in0.0 mm 0.02 in0.5 mm
06:01 PM 42.6°F5.9°C -6.5°F-21.4°C 12% 3.4 mph N5.5 kmh N 6.2 mph10.0 kmh 29.71 in1006.1 mb 0.00 in0.0 mm 0.00 in0.0 mm 0.02 in0.5 mm
06:16 PM 42.8°F6.0°C -6.4°F-21.3°C 12% 2.0 mph N3.2 kmh N 4.8 mph7.7 kmh 29.70 in1005.8 mb 0.00 in0.0 mm 0.00 in0.0 mm 0.02 in0.5 mm
06:31 PM 43.0°F6.1°C -6.3°F-21.3°C 12% 3.4 mph N5.5 kmh N 6.2 mph10.0 kmh 29.70 in1005.8 mb 0.00 in0.0 mm 0.00 in0.0 mm 0.02 in0.5 mm
06:46 PM 43.2°F6.2°C -7.9°F-22.2°C 11% 2.0 mph N3.2 kmh N 4.0 mph6.4 kmh 29.71 in1006.1 mb 0.00 in0.0 mm 0.00 in0.0 mm 0.02 in0.5 mm
07:01 PM 43.2°F6.2°C -9.8°F-23.2°C 10% 2.0 mph N3.2 kmh N 4.0 mph6.4 kmh 29.70 in1005.8 mb 0.00 in0.0 mm 0.00 in0.0 mm 0.02 in0.5 mm
07:16 PM 43.2°F6.2°C -9.8°F-23.2°C 10% 2.0 mph N3.2 kmh N 4.8 mph7.7 kmh 29.70 in1005.8 mb 0.00 in0.0 mm 0.00 in0.0 mm 0.02 in0.5 mm
07:31 PM 43.2°F6.2°C -168.5°F-111.4°C - 1.4 mph N2.3 kmh N 3.4 mph5.5 kmh 29.70 in1005.8 mb 0.00 in0.0 mm 0.00 in0.0 mm 0.02 in0.5 mm
07:46 PM 43.0°F6.1°C -168.5°F-111.4°C - 0.6 mph N1.0 kmh N 4.0 mph6.4 kmh 29.70 in1005.8 mb 0.00 in0.0 mm 0.00 in0.0 mm 0.02 in0.5 mm
08:01 PM 43.3°F6.3°C -168.5°F-111.4°C - 2.0 mph N3.2 kmh N 5.4 mph8.7 kmh 29.70 in1005.8 mb 0.00 in0.0 mm 0.00 in0.0 mm 0.02 in0.5 mm
08:16 PM 43.5°F6.4°C -168.4°F-111.3°C - 2.0 mph N3.2 kmh N 6.2 mph10.0 kmh 29.69 in1005.4 mb 0.00 in0.0 mm 0.00 in0.0 mm 0.02 in0.5 mm
08:31 PM 43.9°F6.6°C -168.4°F-111.3°C - 2.0 mph N3.2 kmh N 4.0 mph6.4 kmh 29.69 in1005.4 mb 0.00 in0.0 mm 0.00 in0.0 mm 0.02 in0.5 mm
08:46 PM 44.1°F6.7°C -168.4°F-111.3°C - 0.6 mph N1.0 kmh N 2.8 mph4.5 kmh 29.68 in1005.1 mb 0.00 in0.0 mm 0.00 in0.0 mm 0.02 in0.5 mm
09:01 PM 44.2°F6.8°C -168.4°F-111.3°C - 2.8 mph N4.5 kmh N 6.8 mph10.9 kmh 29.68 in1005.1 mb 0.00 in0.0 mm 0.00 in0.0 mm 0.02 in0.5 mm
09:16 PM 44.2°F6.8°C -168.4°F-111.3°C - 3.4 mph N5.5 kmh N 6.2 mph10.0 kmh 29.68 in1005.1 mb 0.00 in0.0 mm 0.00 in0.0 mm 0.02 in0.5 mm
09:31 PM 44.1°F6.7°C -168.4°F-111.3°C - 2.0 mph N3.2 kmh N 4.0 mph6.4 kmh 29.68 in1005.1 mb 0.00 in0.0 mm 0.00 in0.0 mm 0.02 in0.5 mm
09:46 PM 44.2°F6.8°C -168.4°F-111.3°C - 2.8 mph N4.5 kmh N 6.2 mph10.0 kmh 29.68 in1005.1 mb 0.00 in0.0 mm 0.00 in0.0 mm 0.02 in0.5 mm
10:01 PM 44.6°F7.0°C -168.3°F-111.3°C - 2.8 mph N4.5 kmh N 6.8 mph10.9 kmh 29.68 in1005.1 mb 0.00 in0.0 mm 0.00 in0.0 mm 0.02 in0.5 mm
10:16 PM 44.4°F6.9°C -168.4°F-111.3°C - 2.0 mph N3.2 kmh N 4.0 mph6.4 kmh 29.67 in1004.7 mb 0.00 in0.0 mm 0.00 in0.0 mm 0.02 in0.5 mm
10:31 PM 44.4°F6.9°C -168.4°F-111.3°C - 2.0 mph N3.2 kmh N 4.8 mph7.7 kmh 29.67 in1004.7 mb 0.00 in0.0 mm 0.00 in0.0 mm 0.02 in0.5 mm
10:46 PM 44.2°F6.8°C -168.4°F-111.3°C - 2.8 mph N4.5 kmh N 5.4 mph8.7 kmh 29.66 in1004.4 mb 0.00 in0.0 mm 0.00 in0.0 mm 0.02 in0.5 mm
11:01 PM 44.2°F6.8°C -168.4°F-111.3°C - 2.8 mph N4.5 kmh N 6.2 mph10.0 kmh 29.67 in1004.7 mb 0.00 in0.0 mm 0.00 in0.0 mm 0.02 in0.5 mm
11:16 PM 44.2°F6.8°C -168.4°F-111.3°C - 3.4 mph N5.5 kmh N 6.8 mph10.9 kmh 29.66 in1004.4 mb 0.00 in0.0 mm 0.00 in0.0 mm 0.02 in0.5 mm
11:31 PM 44.4°F6.9°C -168.4°F-111.3°C - 1.4 mph N2.3 kmh N 4.0 mph6.4 kmh 29.66 in1004.4 mb 0.00 in0.0 mm 0.00 in0.0 mm 0.02 in0.5 mm
11:46 PM 44.2°F6.8°C -168.4°F-111.3°C - 2.0 mph N3.2 kmh N 4.8 mph7.7 kmh 29.66 in1004.4 mb 0.00 in0.0 mm 0.00 in0.0 mm 0.02 in0.5 mm